Time;durP1;ratioP1;P1;durP2;ratioP2;P2;SDS_P1;SDS_P2;PMS_P1;PMS_P2;Temp;Humidity;BMP_temperature;BMP_pressure;BME280_temperature;BME280_humidity;BME280_pressure;Samples;Min_cycle;Max_cycle;Signal;HPM_P1;HPM_P2
2021/06/18 00:00:49;;;;;;;5.97;3.55;;;;;;;20.52;60.77;99895.52;1726752;82;21004;-42
2021/06/18 00:03:16;;;;;;;9.78;3.70;;;;;;;20.51;60.65;99894.55;1726773;82;21076;-42
2021/06/18 00:05:43;;;;;;;8.05;3.65;;;;;;;20.50;60.65;99892.98;1726833;82;21001;-42
2021/06/18 00:08:10;;;;;;;7.50;3.30;;;;;;;20.48;60.65;99893.38;1726935;83;21841;-42
2021/06/18 00:10:36;;;;;;;5.40;2.92;;;;;;;20.46;60.67;99889.49;1726892;83;21028;-42
2021/06/18 00:13:03;;;;;;;7.08;3.05;;;;;;;20.44;60.61;99898.75;1726845;83;21009;-42
2021/06/18 00:15:30;;;;;;;6.65;3.15;;;;;;;20.42;60.36;99897.02;1726831;83;20973;-42
2021/06/18 00:17:58;;;;;;;5.35;3.17;;;;;;;20.39;60.18;99896.64;1726600;83;20934;-42
2021/06/18 00:20:25;;;;;;;5.80;3.17;;;;;;;20.37;60.08;99899.64;1726849;83;21818;-42
2021/06/18 00:22:52;;;;;;;6.47;3.47;;;;;;;20.34;60.06;99904.58;1726727;83;21021;-42
2021/06/18 00:25:18;;;;;;;3.77;3.10;;;;;;;20.30;60.57;99903.81;1726826;83;21089;-42
2021/06/18 00:27:45;;;;;;;4.92;3.02;;;;;;;20.26;60.86;99902.48;1726894;82;21535;-42
2021/06/18 00:30:14;;;;;;;3.75;3.00;;;;;;;20.25;61.18;99905.05;1726938;82;21506;-42
2021/06/18 00:32:41;;;;;;;6.62;3.00;;;;;;;20.23;61.31;99906.07;1766799;80;21099;-42
2021/06/18 00:35:09;;;;;;;4.83;3.05;;;;;;;20.20;61.11;99901.37;1777663;80;21629;-42
2021/06/18 00:37:36;;;;;;;4.22;3.00;;;;;;;20.18;61.21;99905.14;1772838;80;20997;-42
2021/06/18 00:40:06;;;;;;;6.50;2.87;;;;;;;20.17;61.22;99908.30;1764887;81;21029;-42
2021/06/18 00:42:33;;;;;;;6.45;3.33;;;;;;;20.14;61.31;99898.88;1765235;81;20938;-42
2021/06/18 00:44:59;;;;;;;6.03;3.10;;;;;;;20.12;61.47;99902.65;1764985;81;21136;-42
2021/06/18 00:47:27;;;;;;;5.85;3.02;;;;;;;20.11;61.46;99896.17;1764873;81;20906;-42
2021/06/18 00:49:54;;;;;;;6.28;3.17;;;;;;;20.11;61.47;99893.42;1738995;81;21063;-42
2021/06/18 00:52:21;;;;;;;5.22;2.87;;;;;;;20.10;61.46;99898.14;1747845;81;21052;-42
2021/06/18 00:54:49;;;;;;;9.45;3.25;;;;;;;20.10;61.50;99902.86;1718902;83;21553;-42
2021/06/18 00:57:16;;;;;;;4.42;3.15;;;;;;;20.06;61.43;99903.50;1718896;83;21127;-42
2021/06/18 00:59:44;;;;;;;5.67;3.20;;;;;;;20.04;61.42;99908.06;1701678;83;21079;-42
2021/06/18 01:02:10;;;;;;;6.35;3.10;;;;;;;20.01;61.39;99904.73;1719121;83;21005;-42
2021/06/18 01:04:37;;;;;;;5.40;3.17;;;;;;;19.97;61.53;99899.86;1719019;83;21830;-42
2021/06/18 01:07:18;;;;;;;5.70;3.45;;;;;;;19.96;61.58;99901.05;1718868;83;21081;-42
2021/06/18 01:09:59;;;;;;;6.35;3.27;;;;;;;19.94;61.66;99898.70;1718273;83;22211;-42
2021/06/18 01:12:27;;;;;;;6.95;3.50;;;;;;;19.88;61.97;99892.69;1691037;83;21812;-42
2021/06/18 01:15:14;;;;;;;9.60;3.47;;;;;;;19.81;62.07;99890.00;1719120;83;21000;-42
2021/06/18 01:18:05;;;;;;;7.10;3.58;;;;;;;19.77;62.10;99890.05;1719073;83;21108;-42
2021/06/18 01:21:08;;;;;;;5.30;3.45;;;;;;;19.70;62.13;99879.72;1706195;83;21045;-42
2021/06/18 01:23:40;;;;;;;9.55;3.47;;;;;;;19.66;62.26;99881.11;1719138;83;21613;-42
2021/06/18 01:26:22;;;;;;;4.67;3.30;;;;;;;19.63;62.27;99875.64;1718889;83;20969;-42
2021/06/18 01:28:55;;;;;;;4.72;3.50;;;;;;;19.61;62.17;99880.17;1680188;83;21613;-42
2021/06/18 01:31:32;;;;;;;4.85;3.15;;;;;;;19.58;62.24;99881.59;1718709;82;21037;-42
2021/06/18 01:34:09;;;;;;;8.05;3.30;;;;;;;19.54;61.94;99878.87;1718961;83;20976;-42
2021/06/18 01:36:35;;;;;;;5.30;3.25;;;;;;;19.49;61.69;99877.94;1716240;83;21809;-42
2021/06/18 01:39:02;;;;;;;7.78;3.40;;;;;;;19.44;61.89;99872.28;1714247;83;20966;-42
2021/06/18 01:41:30;;;;;;;6.83;3.58;;;;;;;19.40;61.98;99868.77;1703442;83;21053;-42
2021/06/18 01:43:58;;;;;;;5.15;3.42;;;;;;;19.37;61.68;99868.77;1713668;83;20970;-42
2021/06/18 01:46:29;;;;;;;7.37;3.62;;;;;;;19.35;61.50;99869.20;1713695;82;21551;-42
2021/06/18 01:49:05;;;;;;;3.90;3.05;;;;;;;19.32;61.76;99861.74;1713520;83;21110;-42
2021/06/18 01:51:33;;;;;;;6.37;3.00;;;;;;;19.29;61.84;99865.31;1713288;82;21040;-42
2021/06/18 01:54:01;;;;;;;4.78;3.25;;;;;;;19.28;61.90;99867.86;1702293;83;20950;-42
2021/06/18 01:56:29;;;;;;;4.08;2.87;;;;;;;19.28;61.68;99869.83;1713836;83;21097;-42
2021/06/18 01:58:58;;;;;;;5.37;3.00;;;;;;;19.26;61.76;99866.72;1703373;83;21587;-42
2021/06/18 02:01:31;;;;;;;3.58;2.80;;;;;;;19.24;61.59;99871.24;1713829;83;25654;-42
2021/06/18 02:03:58;;;;;;;6.12;3.20;;;;;;;19.23;61.43;99877.92;1713428;83;21029;-42
2021/06/18 02:06:25;;;;;;;6.85;3.22;;;;;;;19.22;61.52;99868.72;1713588;82;21017;-42
2021/06/18 02:08:56;;;;;;;4.47;3.20;;;;;;;19.22;61.48;99876.97;1713469;83;20982;-42
2021/06/18 02:11:26;;;;;;;5.05;3.00;;;;;;;19.20;61.77;99874.62;1714084;82;21509;-42
2021/06/18 02:13:55;;;;;;;;;;;;;;;19.20;61.83;99875.99;1709871;83;21103;-42
2021/06/18 02:16:26;;;;;;;6.77;2.40;;;;;;;19.19;61.85;99873.05;1713771;83;20146;-42
2021/06/18 02:18:54;;;;;;;4.90;2.77;;;;;;;19.10;61.71;99876.27;1713358;82;20943;-42
2021/06/18 02:21:21;;;;;;;6.30;3.35;;;;;;;19.11;61.61;99872.92;1713775;83;21005;-42
2021/06/18 02:23:48;;;;;;;6.67;2.98;;;;;;;19.12;61.68;99870.96;1713608;82;21033;-42
2021/06/18 02:26:14;;;;;;;5.62;2.80;;;;;;;19.13;61.76;99872.50;1713660;83;21914;-42
2021/06/18 02:28:41;;;;;;;3.27;2.70;;;;;;;19.13;61.69;99875.25;1713543;83;21029;-42
2021/06/18 02:31:07;;;;;;;4.65;2.52;;;;;;;19.13;61.29;99877.41;1713786;83;21037;-42
2021/06/18 02:33:34;;;;;;;5.25;2.52;;;;;;;19.08;61.04;99872.34;1713445;83;21049;-42
2021/06/18 02:36:00;;;;;;;5.00;2.60;;;;;;;19.12;60.88;99881.37;1713462;82;21077;-42
2021/06/18 02:38:27;;;;;;;4.85;2.70;;;;;;;19.14;61.16;99880.94;1719754;82;21140;-42
2021/06/18 02:40:54;;;;;;;4.35;2.67;;;;;;;19.15;61.07;99883.30;1726490;82;21887;-44
2021/06/18 02:43:21;;;;;;;7.10;2.80;;;;;;;19.16;60.74;99887.61;1726477;83;21053;-42
2021/06/18 02:45:48;;;;;;;6.87;2.98;;;;;;;19.18;61.08;99882.48;1726253;83;21001;-42
2021/06/18 02:48:28;;;;;;;5.92;2.60;;;;;;;19.19;61.00;99879.92;1726507;83;21048;-42
2021/06/18 02:51:12;;;;;;;3.00;2.12;;;;;;;19.20;60.65;99879.33;1727011;82;21740;-42
2021/06/18 02:53:56;;;;;;;6.20;2.30;;;;;;;19.17;60.79;99875.41;1710070;82;20898;-42
2021/06/18 02:56:34;;;;;;;3.35;2.12;;;;;;;19.17;60.73;99880.16;1726518;82;21020;-42
2021/06/18 02:59:08;;;;;;;8.85;2.40;;;;;;;19.18;60.53;99884.44;1726478;83;21016;-42
2021/06/18 03:01:38;;;;;;;5.80;2.60;;;;;;;19.16;60.48;99880.74;1726390;82;21036;-42
2021/06/18 03:04:05;;;;;;;8.40;2.47;;;;;;;19.17;60.70;99880.91;1726605;83;21022;-43
2021/06/18 03:06:35;;;;;;;4.55;2.30;;;;;;;19.17;60.57;99869.91;1726421;82;20968;-43
2021/06/18 03:09:05;;;;;;;5.20;2.40;;;;;;;19.18;60.23;99871.48;1726244;82;21012;-43
2021/06/18 03:11:36;;;;;;;6.72;2.15;;;;;;;19.20;60.64;99878.74;1726635;82;21527;-43
2021/06/18 03:14:05;;;;;;;5.10;2.00;;;;;;;19.22;60.47;99881.09;1726281;83;21084;-43
2021/06/18 03:16:33;;;;;;;10.70;2.30;;;;;;;19.27;60.22;99883.38;1726835;83;21792;-43
2021/06/18 03:19:04;;;;;;;4.10;2.00;;;;;;;19.29;59.63;99879.05;1726468;82;21063;-43
2021/06/18 03:21:33;;;;;;;4.58;2.37;;;;;;;19.32;59.83;99885.11;1726677;83;20905;-43
2021/06/18 03:24:00;;;;;;;5.00;2.10;;;;;;;19.35;59.58;99880.20;1726244;83;21020;-43
2021/06/18 03:26:27;;;;;;;4.58;1.75;;;;;;;19.38;60.11;99879.37;1710103;83;21017;-43
2021/06/18 03:28:55;;;;;;;5.62;2.20;;;;;;;19.43;60.00;99887.19;1726445;82;21206;-43
2021/06/18 03:31:23;;;;;;;3.42;1.90;;;;;;;19.46;60.05;99886.39;1726530;83;21350;-43
2021/06/18 03:33:50;;;;;;;2.83;2.00;;;;;;;19.51;59.26;99879.08;1708948;83;20965;-43
2021/06/18 03:36:26;;;;;;;5.67;1.95;;;;;;;19.56;59.25;99879.85;1726490;83;21503;-43
2021/06/18 03:38:54;;;;;;;3.98;2.05;;;;;;;19.60;58.96;99886.88;1719491;82;20977;-43
2021/06/18 03:41:21;;;;;;;6.72;2.10;;;;;;;19.63;58.78;99887.43;1713673;83;21570;-43
2021/06/18 03:43:50;;;;;;;12.23;2.42;;;;;;;19.69;58.73;99890.53;1713588;83;21028;-43
2021/06/18 03:46:17;;;;;;;3.17;1.98;;;;;;;19.74;57.96;99901.09;1713803;82;21519;-43
2021/06/18 03:48:44;;;;;;;5.37;2.20;;;;;;;19.75;58.04;99905.41;1713550;83;21029;-42
2021/06/18 03:51:11;;;;;;;4.83;2.08;;;;;;;19.76;58.62;99901.45;1713467;83;21002;-43
2021/06/18 03:53:38;;;;;;;7.17;2.30;;;;;;;19.80;58.29;99906.34;1713632;82;21089;-43
2021/06/18 03:56:05;;;;;;;7.78;1.95;;;;;;;19.83;58.42;99903.55;1713308;83;21044;-43
2021/06/18 03:58:33;;;;;;;7.22;2.10;;;;;;;19.89;58.46;99897.01;1713516;83;20962;-43
2021/06/18 04:01:00;;;;;;;6.58;2.62;;;;;;;19.92;58.03;99901.09;1713759;82;21041;-43
2021/06/18 04:03:27;;;;;;;4.65;2.50;;;;;;;19.96;57.88;99900.45;1713612;83;21547;-43
2021/06/18 04:05:59;;;;;;;5.53;2.10;;;;;;;20.02;58.01;99898.05;1702034;83;21970;-43
2021/06/18 04:08:25;;;;;;;6.28;2.33;;;;;;;20.07;58.03;99899.56;1713457;82;21001;-43
2021/06/18 04:10:52;;;;;;;7.37;2.37;;;;;;;20.12;57.85;99902.65;1713375;83;21037;-43
2021/06/18 04:13:21;;;;;;;5.22;2.20;;;;;;;20.15;57.97;99911.45;1713451;82;20958;-43
2021/06/18 04:15:48;;;;;;;7.72;2.17;;;;;;;20.20;57.75;99911.00;1713586;83;21558;-43
2021/06/18 04:18:23;;;;;;;5.37;2.17;;;;;;;20.26;57.77;99919.00;1713518;83;21911;-43
2021/06/18 04:20:51;;;;;;;7.30;2.60;;;;;;;20.31;57.96;99922.72;1713429;83;21325;-43
2021/06/18 04:23:27;;;;;;;4.35;2.37;;;;;;;20.37;57.19;99926.59;1713580;82;21053;-43
2021/06/18 04:25:49;;;;;;;4.62;2.30;;;;;;;20.44;56.70;99929.05;1713187;82;20941;-43
2021/06/18 04:28:16;;;;;;;4.90;2.33;;;;;;;20.47;56.55;99921.36;1713796;83;21092;-43
2021/06/18 04:30:43;;;;;;;4.90;2.25;;;;;;;20.54;57.53;99911.61;1713719;83;21819;-43
2021/06/18 04:33:09;;;;;;;7.22;2.00;;;;;;;20.58;56.59;99912.34;1713604;83;21629;-43
2021/06/18 04:35:36;;;;;;;5.45;2.05;;;;;;;20.61;56.10;99906.80;1713788;82;21073;-43
2021/06/18 04:38:03;;;;;;;4.35;2.00;;;;;;;20.66;56.51;99908.31;1714238;82;21049;-43
2021/06/18 04:40:30;;;;;;;2.60;2.10;;;;;;;20.72;56.52;99907.42;1726491;83;21036;-43
2021/06/18 04:42:58;;;;;;;4.33;2.20;;;;;;;20.78;56.77;99906.37;1726616;83;21853;-43
2021/06/18 04:45:26;;;;;;;5.58;1.90;;;;;;;20.86;56.32;99911.98;1726459;83;20957;-43
2021/06/18 04:47:55;;;;;;;3.95;2.10;;;;;;;20.93;56.46;99909.11;1726596;83;21014;-43
2021/06/18 04:50:22;;;;;;;5.62;1.90;;;;;;;20.99;56.82;99908.83;1726592;83;21001;-43
2021/06/18 04:52:48;;;;;;;5.37;2.12;;;;;;;21.08;56.02;99909.09;1726587;81;21578;-43
2021/06/18 04:55:17;;;;;;;3.20;2.20;;;;;;;21.17;55.85;99909.96;1726477;83;21113;-43
2021/06/18 04:57:44;;;;;;;5.05;1.90;;;;;;;21.24;55.78;99903.75;1726284;83;21009;-43
2021/06/18 05:00:13;;;;;;;4.58;2.33;;;;;;;21.32;55.84;99900.87;1726759;83;21013;-43
2021/06/18 05:02:39;;;;;;;5.50;1.92;;;;;;;21.40;55.41;99897.56;1726539;83;21550;-43
2021/06/18 05:05:07;;;;;;;6.42;2.20;;;;;;;21.46;55.24;99897.88;1726536;83;21613;-43
2021/06/18 05:07:34;;;;;;;4.42;1.98;;;;;;;21.51;54.90;99900.16;1726444;83;21162;-43
2021/06/18 05:10:04;;;;;;;4.67;2.20;;;;;;;21.56;54.15;99898.30;1726347;82;20977;-43
2021/06/18 05:12:30;;;;;;;3.67;2.10;;;;;;;21.59;55.14;99898.85;1726498;83;21060;-43
2021/06/18 05:14:57;;;;;;;6.67;1.95;;;;;;;21.66;54.28;99891.81;1726432;83;21117;-43
2021/06/18 05:17:24;;;;;;;3.77;2.00;;;;;;;21.72;54.62;99894.28;1726546;83;21037;-43
2021/06/18 05:19:51;;;;;;;5.15;2.00;;;;;;;21.77;54.01;99894.39;1726502;83;21165;-43
2021/06/18 05:22:17;;;;;;;6.00;1.92;;;;;;;21.81;54.01;99893.13;1726468;83;21080;-43
2021/06/18 05:24:44;;;;;;;4.62;1.90;;;;;;;21.87;54.16;99888.68;1726559;83;21510;-43
2021/06/18 05:27:11;;;;;;;4.85;2.10;;;;;;;21.95;54.27;99888.75;1726697;83;21539;-43
2021/06/18 05:29:37;;;;;;;4.75;1.98;;;;;;;22.05;54.16;99885.00;1726600;83;21508;-43
2021/06/18 05:32:06;;;;;;;4.22;2.05;;;;;;;22.17;54.06;99881.44;1726571;83;21803;-43
2021/06/18 05:34:32;;;;;;;4.03;1.90;;;;;;;22.28;54.23;99886.13;1726674;83;20961;-43
2021/06/18 05:36:59;;;;;;;4.20;1.90;;;;;;;22.39;53.76;99887.47;1726551;83;21040;-43
2021/06/18 05:39:26;;;;;;;3.77;2.20;;;;;;;22.51;53.62;99887.44;1720331;82;21535;-43
2021/06/18 05:41:53;;;;;;;6.97;2.20;;;;;;;22.60;51.86;99884.88;1713525;83;21064;-43
2021/06/18 05:44:19;;;;;;;4.53;1.77;;;;;;;22.67;51.58;99876.41;1713763;83;21803;-43
2021/06/18 05:46:46;;;;;;;4.45;2.20;;;;;;;22.71;52.11;99879.89;1713518;83;20973;-43
2021/06/18 05:49:13;;;;;;;6.75;2.30;;;;;;;22.76;51.60;99878.61;1713594;83;20989;-43
2021/06/18 05:51:40;;;;;;;4.62;2.00;;;;;;;22.80;51.52;99877.95;1713842;82;21581;-43
2021/06/18 05:54:06;;;;;;;5.92;2.08;;;;;;;22.84;52.15;99880.02;1713623;83;21587;-43
2021/06/18 05:56:33;;;;;;;6.25;1.98;;;;;;;22.90;52.75;99880.45;1713571;83;21923;-43
2021/06/18 05:59:00;;;;;;;4.83;2.12;;;;;;;22.98;51.61;99878.91;1713565;83;21022;-43
2021/06/18 06:01:26;;;;;;;5.08;2.00;;;;;;;23.05;52.22;99878.73;1713980;83;21535;-43
2021/06/18 06:03:54;;;;;;;5.47;2.02;;;;;;;23.13;51.83;99882.30;1713491;83;21500;-43
2021/06/18 06:06:21;;;;;;;4.78;2.05;;;;;;;23.19;51.18;99877.03;1713609;82;21414;-43
2021/06/18 06:08:53;;;;;;;4.85;2.25;;;;;;;23.22;52.05;99872.80;1713569;83;21983;-43
2021/06/18 06:11:21;;;;;;;5.20;2.00;;;;;;;23.32;53.20;99864.05;1713433;83;20965;-43
2021/06/18 06:13:50;;;;;;;5.87;1.90;;;;;;;23.41;50.96;99869.75;1713610;83;21042;-43
2021/06/18 06:16:18;;;;;;;3.35;1.92;;;;;;;23.52;50.93;99873.67;1713769;82;21073;-43
2021/06/18 06:18:45;;;;;;;4.10;2.17;;;;;;;23.62;51.25;99872.61;1713593;83;20986;-43
2021/06/18 06:21:11;;;;;;;4.50;2.20;;;;;;;23.73;51.29;99873.09;1713588;83;21130;-42
2021/06/18 06:23:38;;;;;;;7.62;2.42;;;;;;;23.82;49.86;99867.09;1713536;83;21582;-43
2021/06/18 06:26:05;;;;;;;5.28;2.02;;;;;;;23.90;49.93;99872.45;1713467;83;21557;-43
2021/06/18 06:28:32;;;;;;;10.03;2.30;;;;;;;23.97;50.67;99874.41;1713456;83;21041;-43
2021/06/18 06:30:59;;;;;;;4.45;1.90;;;;;;;24.07;51.01;99873.95;1713631;83;21045;-43
2021/06/18 06:33:25;;;;;;;3.75;1.52;;;;;;;24.16;50.68;99877.66;1713623;83;21115;-43
2021/06/18 06:35:52;;;;;;;4.28;2.00;;;;;;;24.23;51.14;99875.31;1713716;83;21538;-42
2021/06/18 06:38:20;;;;;;;4.08;1.90;;;;;;;24.29;50.08;99874.16;1713630;82;21583;-42
2021/06/18 06:40:48;;;;;;;5.42;1.98;;;;;;;24.35;50.17;99882.11;1725138;83;21045;-43
2021/06/18 06:43:15;;;;;;;2.67;1.77;;;;;;;24.39;49.77;99872.47;1735288;81;21613;-43
2021/06/18 06:45:42;;;;;;;5.42;2.15;;;;;;;24.45;50.60;99871.30;1771486;81;21130;-43
2021/06/18 06:48:09;;;;;;;6.05;2.30;;;;;;;24.56;49.80;99878.69;1772085;81;20949;-43
2021/06/18 06:50:37;;;;;;;7.62;2.45;;;;;;;24.64;49.71;99878.03;1772293;81;20922;-43
2021/06/18 06:53:05;;;;;;;4.33;2.17;;;;;;;24.71;49.24;99877.66;1739538;81;20973;-43
2021/06/18 06:55:32;;;;;;;4.50;2.67;;;;;;;24.76;49.39;99874.33;1726549;82;21510;-42
2021/06/18 06:57:59;;;;;;;5.55;2.02;;;;;;;24.83;49.29;99873.52;1726434;83;21831;-43
2021/06/18 07:00:25;;;;;;;4.83;2.27;;;;;;;24.90;49.41;99878.08;1726215;83;21003;-43
2021/06/18 07:02:53;;;;;;;6.15;2.47;;;;;;;24.97;49.18;99873.70;1726455;83;21020;-43
2021/06/18 07:05:20;;;;;;;5.80;2.77;;;;;;;25.06;49.50;99877.97;1726421;83;21048;-43
2021/06/18 07:07:47;;;;;;;5.00;2.08;;;;;;;25.13;48.37;99876.34;1726274;82;21361;-42
2021/06/18 07:10:13;;;;;;;3.25;2.10;;;;;;;25.16;48.47;99879.63;1726398;83;21136;-43
2021/06/18 07:12:40;;;;;;;2.83;1.92;;;;;;;25.19;48.29;99873.78;1726655;83;21016;-43
2021/06/18 07:15:10;;;;;;;3.67;1.92;;;;;;;25.22;48.90;99876.47;1726408;83;20984;-43
2021/06/18 07:17:37;;;;;;;4.10;1.80;;;;;;;25.28;48.69;99876.05;1726520;83;21013;-43
2021/06/18 07:20:05;;;;;;;4.97;2.05;;;;;;;25.37;48.70;99875.36;1726248;83;21009;-43
2021/06/18 07:22:32;;;;;;;3.80;2.30;;;;;;;25.45;48.31;99871.14;1726420;83;21578;-43
2021/06/18 07:25:00;;;;;;;5.30;2.47;;;;;;;25.50;48.56;99860.25;1726231;82;20969;-43
2021/06/18 07:27:27;;;;;;;5.28;2.15;;;;;;;25.58;48.45;99862.79;1726464;82;20993;-43
2021/06/18 07:29:54;;;;;;;6.12;2.10;;;;;;;25.68;48.31;99865.81;1726275;83;21076;-43
2021/06/18 07:32:22;;;;;;;10.25;2.10;;;;;;;25.80;48.05;99865.01;1726487;83;21013;-43
2021/06/18 07:34:49;;;;;;;3.60;2.02;;;;;;;25.90;47.42;99858.30;1726427;83;21931;-43
2021/06/18 07:37:16;;;;;;;5.20;1.90;;;;;;;25.98;47.49;99854.03;1726407;83;20921;-43
2021/06/18 07:39:43;;;;;;;5.58;2.00;;;;;;;26.07;46.87;99858.87;1724991;83;21487;-43
2021/06/18 07:42:10;;;;;;;6.65;1.92;;;;;;;26.13;46.82;99856.45;1726421;83;21084;-43
2021/06/18 07:44:38;;;;;;;3.02;1.80;;;;;;;26.21;47.60;99853.59;1726455;83;20989;-43
2021/06/18 07:47:06;;;;;;;4.12;1.90;;;;;;;26.31;46.08;99853.81;1726280;83;21132;-43
2021/06/18 07:49:34;;;;;;;3.47;2.05;;;;;;;26.41;45.39;99848.30;1726464;83;21002;-43
2021/06/18 07:52:01;;;;;;;3.30;2.22;;;;;;;26.47;45.19;99852.83;1726180;81;21495;-43
2021/06/18 07:54:28;;;;;;;2.15;1.67;;;;;;;26.55;45.22;99860.27;1726495;83;21009;-43
2021/06/18 07:56:55;;;;;;;5.75;2.52;;;;;;;26.63;44.70;99854.58;1726432;83;21044;-43
2021/06/18 07:59:22;;;;;;;4.12;1.80;;;;;;;26.72;44.88;99854.64;1726506;83;21136;-43
2021/06/18 08:01:50;;;;;;;7.05;2.58;;;;;;;26.80;44.39;99846.17;1726576;82;21031;-42
2021/06/18 08:04:17;;;;;;;7.42;2.27;;;;;;;26.90;44.57;99850.56;1726598;83;21030;-43
2021/06/18 08:06:44;;;;;;;4.87;1.70;;;;;;;26.99;44.07;99849.20;1726691;82;22097;-43
2021/06/18 08:09:10;;;;;;;4.05;2.00;;;;;;;27.04;44.49;99841.64;1726446;83;21533;-43
2021/06/18 08:11:37;;;;;;;6.65;2.15;;;;;;;27.12;43.42;99848.45;1726606;83;21099;-43
2021/06/18 08:14:04;;;;;;;6.83;1.98;;;;;;;27.20;43.05;99846.17;1726580;83;20910;-43
2021/06/18 08:16:31;;;;;;;3.22;1.87;;;;;;;27.23;43.61;99854.36;1726674;83;21512;-43
2021/06/18 08:18:57;;;;;;;5.80;2.10;;;;;;;27.29;42.66;99851.75;1726506;83;21499;-43
2021/06/18 08:21:25;;;;;;;6.65;2.05;;;;;;;27.37;43.43;99861.95;1726601;83;21096;-43
2021/06/18 08:23:52;;;;;;;4.28;2.30;;;;;;;27.45;42.58;99869.55;1726580;82;21778;-43
2021/06/18 08:26:19;;;;;;;4.05;1.98;;;;;;;27.53;42.84;99872.23;1726484;83;21101;-43
2021/06/18 08:28:46;;;;;;;4.58;1.70;;;;;;;27.59;43.12;99869.62;1726453;83;21598;-43
2021/06/18 08:31:13;;;;;;;5.83;2.00;;;;;;;27.68;42.94;99877.98;1726450;83;21005;-43
2021/06/18 08:33:39;;;;;;;8.78;2.25;;;;;;;27.76;42.56;99871.47;1726581;83;21060;-43
2021/06/18 08:36:06;;;;;;;6.05;2.25;;;;;;;27.80;42.26;99872.86;1726575;83;21938;-43
2021/06/18 08:38:34;;;;;;;3.77;2.00;;;;;;;27.82;41.65;99869.00;1726474;83;21681;-43
2021/06/18 08:41:03;;;;;;;4.58;2.00;;;;;;;27.86;41.60;99871.01;1718532;83;20989;-43
2021/06/18 08:43:31;;;;;;;2.62;1.90;;;;;;;27.91;41.17;99875.96;1713905;83;20941;-43
2021/06/18 08:46:01;;;;;;;7.83;2.10;;;;;;;27.92;40.96;99873.34;1713772;82;20969;-43
2021/06/18 08:48:33;;;;;;;5.08;2.27;;;;;;;27.94;41.11;99872.23;1713946;83;21187;-43
2021/06/18 08:51:01;;;;;;;5.92;2.25;;;;;;;27.97;41.79;99869.16;1713791;82;20969;-43
2021/06/18 08:53:28;;;;;;;8.20;2.08;;;;;;;28.05;41.82;99861.39;1713723;82;21093;-43
2021/06/18 08:55:55;;;;;;;5.70;2.05;;;;;;;28.13;40.94;99868.09;1703256;83;21037;-43
2021/06/18 08:58:22;;;;;;;5.50;1.85;;;;;;;28.16;40.75;99873.49;1713582;83;21010;-43
2021/06/18 09:00:51;;;;;;;7.55;1.70;;;;;;;28.18;40.42;99863.25;1713625;83;21136;-43
2021/06/18 09:03:41;;;;;;;8.85;2.30;;;;;;;28.22;40.90;99867.45;1713605;82;21014;-43
2021/06/18 09:06:28;;;;;;;5.12;1.77;;;;;;;28.27;40.48;99872.37;1713708;82;21049;-43
2021/06/18 09:09:20;;;;;;;5.60;2.10;;;;;;;28.32;41.04;99866.81;1713620;83;20990;-43
2021/06/18 09:11:55;;;;;;;9.80;1.80;;;;;;;28.39;40.96;99865.85;1713747;83;21002;-43
2021/06/18 09:14:36;;;;;;;3.92;1.70;;;;;;;28.48;41.46;99867.84;1713164;82;21106;-43
2021/06/18 09:17:23;;;;;;;53.08;24.92;;;;;;;28.58;41.95;99871.37;1713504;83;21559;-43
2021/06/18 09:20:04;;;;;;;4.95;2.12;;;;;;;28.69;41.61;99867.47;1713619;82;20914;-43
2021/06/18 09:22:42;;;;;;;7.25;2.15;;;;;;;28.77;41.06;99869.47;1713564;83;21033;-42
2021/06/18 09:25:18;;;;;;;4.70;1.90;;;;;;;28.86;40.65;99866.64;1713659;83;21573;-43
2021/06/18 09:27:50;;;;;;;3.35;1.90;;;;;;;28.93;42.35;99863.52;1703722;83;21096;-43
2021/06/18 09:30:27;;;;;;;8.53;1.90;;;;;;;29.05;40.67;99867.97;1713623;83;21516;-43
2021/06/18 09:33:12;;;;;;;6.15;1.70;;;;;;;29.15;41.38;99863.85;1713604;83;21536;-43
2021/06/18 09:36:08;;;;;;;5.30;1.70;;;;;;;29.23;40.41;99860.26;1713373;82;21591;-43
2021/06/18 09:38:50;;;;;;;5.12;1.92;;;;;;;29.25;40.47;99851.38;1713661;83;21548;-43
2021/06/18 09:41:42;;;;;;;5.00;2.00;;;;;;;29.24;40.52;99854.05;1713546;83;21124;-43
2021/06/18 09:44:16;;;;;;;2.95;1.70;;;;;;;29.27;40.89;99844.09;1713545;83;21012;-43
2021/06/18 09:46:48;;;;;;;4.80;1.70;;;;;;;29.28;39.33;99848.44;1713759;82;21122;-43
2021/06/18 09:49:37;;;;;;;3.15;1.70;;;;;;;29.25;39.47;99844.41;1713718;83;21050;-43
2021/06/18 09:52:11;;;;;;;6.40;2.00;;;;;;;29.25;40.02;99854.18;1713585;82;27156;-43
2021/06/18 09:54:49;;;;;;;2.58;1.70;;;;;;;29.29;40.70;99844.38;1713575;82;21567;-43
2021/06/18 09:57:18;;;;;;;3.50;1.90;;;;;;;29.43;39.83;99838.75;1713756;83;21046;-43
2021/06/18 10:00:00;;;;;;;5.80;2.00;;;;;;;29.52;40.17;99846.28;1713608;83;21597;-43
2021/06/18 10:02:42;;;;;;;5.85;2.00;;;;;;;29.56;39.43;99842.05;1713575;82;20934;-43
2021/06/18 10:05:21;;;;;;;3.77;2.00;;;;;;;29.56;39.77;99833.67;1710816;83;21523;-43
2021/06/18 10:07:51;;;;;;;4.80;1.90;;;;;;;29.59;39.85;99837.52;1713638;82;22113;-43
2021/06/18 10:10:21;;;;;;;2.87;1.80;;;;;;;29.63;39.97;99833.28;1713539;83;21081;-43
2021/06/18 10:12:47;;;;;;;4.20;1.98;;;;;;;29.69;39.95;99832.00;1713415;83;20997;-43
2021/06/18 10:15:20;;;;;;;5.42;1.92;;;;;;;29.68;39.15;99822.84;1713793;82;20996;-43
2021/06/18 10:17:49;;;;;;;4.97;2.10;;;;;;;29.67;39.96;99828.31;1713584;82;21014;-43
2021/06/18 10:20:19;;;;;;;5.77;2.13;;;;;;;29.69;40.23;99835.57;1713749;83;21132;-43
2021/06/18 10:23:10;;;;;;;3.70;1.85;;;;;;;29.76;39.18;99829.62;1713482;83;21041;-43
2021/06/18 10:25:53;;;;;;;5.35;2.10;;;;;;;29.79;39.41;99835.64;1712285;82;20986;-43
2021/06/18 10:28:25;;;;;;;2.85;1.87;;;;;;;29.89;39.41;99830.00;1713631;83;21043;-43
2021/06/18 10:30:54;;;;;;;10.78;2.27;;;;;;;29.96;39.44;99833.83;1713681;83;21088;-43
2021/06/18 10:33:31;;;;;;;3.98;2.00;;;;;;;30.00;39.13;99833.78;1713535;83;21122;-43
2021/06/18 10:36:17;;;;;;;10.05;2.33;;;;;;;30.10;39.46;99833.84;1713487;82;21661;-43
2021/06/18 10:38:45;;;;;;;7.78;2.12;;;;;;;30.19;39.11;99827.38;1713632;83;21076;-43
2021/06/18 10:41:18;;;;;;;6.37;2.10;;;;;;;30.26;38.53;99842.35;1718911;83;21027;-43
2021/06/18 10:43:47;;;;;;;4.37;2.42;;;;;;;30.31;38.12;99838.88;1726502;82;21036;-43
2021/06/18 10:46:19;;;;;;;7.30;2.20;;;;;;;30.39;38.31;99828.09;1726599;83;21970;-43
2021/06/18 10:48:56;;;;;;;4.72;2.00;;;;;;;30.50;38.85;99834.65;1726388;83;21080;-43
2021/06/18 10:51:34;;;;;;;3.87;1.90;;;;;;;30.65;38.75;99822.81;1726579;81;20989;-43
2021/06/18 10:54:17;;;;;;;5.33;2.00;;;;;;;30.84;38.50;99825.39;1726441;83;21044;-43
2021/06/18 10:56:54;;;;;;;5.35;2.12;;;;;;;31.00;38.36;99824.22;1726438;83;21064;-43
2021/06/18 10:59:43;;;;;;;3.98;2.02;;;;;;;31.19;37.29;99827.55;1726484;83;21024;-43
2021/06/18 11:02:30;;;;;;;3.50;2.00;;;;;;;31.29;36.33;99811.37;1726510;83;21024;-43
2021/06/18 11:04:58;;;;;;;6.58;2.10;;;;;;;31.34;36.89;99812.85;1726420;83;21071;-43
2021/06/18 11:07:33;;;;;;;5.22;2.10;;;;;;;31.39;36.75;99807.17;1726522;82;21466;-43
2021/06/18 11:10:17;;;;;;;4.58;1.90;;;;;;;31.49;36.09;99810.74;1726268;82;21589;-43
2021/06/18 11:12:47;;;;;;;6.42;2.40;;;;;;;31.60;36.29;99803.75;1725358;82;21134;-43
2021/06/18 11:15:25;;;;;;;7.30;2.17;;;;;;;31.66;35.95;99806.00;1726325;83;20969;-43
2021/06/18 11:18:13;;;;;;;9.35;2.00;;;;;;;31.75;36.18;99807.23;1726320;83;21024;-43
2021/06/18 11:20:49;;;;;;;7.60;2.20;;;;;;;31.87;35.60;99797.66;1726498;83;21031;-43
2021/06/18 11:23:27;;;;;;;5.90;1.87;;;;;;;31.96;35.45;99804.50;1726489;83;21056;-43
2021/06/18 11:26:01;;;;;;;4.65;2.20;;;;;;;31.99;35.70;99806.97;1726345;83;21140;-43
2021/06/18 11:28:41;;;;;;;2.45;1.85;;;;;;;32.10;35.61;99807.05;1726498;83;20969;-43
2021/06/18 11:31:21;;;;;;;6.67;2.10;;;;;;;32.25;35.20;99797.27;1726286;82;21574;-43
2021/06/18 11:33:57;;;;;;;10.65;2.55;;;;;;;32.33;34.91;99798.38;1722292;82;21088;-43
2021/06/18 11:36:38;;;;;;;3.67;2.27;;;;;;;32.41;34.85;99800.72;1726439;83;21041;-43
2021/06/18 11:39:15;;;;;;;3.05;1.95;;;;;;;32.43;34.61;99804.58;1726296;83;21566;-43
2021/06/18 11:41:44;;;;;;;5.55;2.25;;;;;;;32.46;35.10;99803.57;1726319;83;21052;-43
2021/06/18 11:44:12;;;;;;;;;;;;;;;32.67;34.69;99800.83;1728963;82;20997;-43
2021/06/18 11:46:41;;;;;;;8.87;2.23;;;;;;;32.62;34.59;99803.56;1726642;83;20448;-43
2021/06/18 11:49:18;;;;;;;5.00;2.25;;;;;;;32.41;35.36;99808.50;1726644;83;21096;-43